sensor_id;sensor_type;location;lat;lon;timestamp;P1;durP1;ratioP1;P2;durP2;ratioP2
58360;SDS011;44164;44.954;10.068;2023-03-14T00:02:10;3.35;;;2.03;;
58360;SDS011;44164;44.954;10.068;2023-03-14T00:04:36;4.72;;;1.75;;
58360;SDS011;44164;44.954;10.068;2023-03-14T00:07:03;3.30;;;1.70;;
58360;SDS011;44164;44.954;10.068;2023-03-14T00:09:29;4.53;;;1.77;;
58360;SDS011;44164;44.954;10.068;2023-03-14T00:11:56;4.25;;;2.25;;
58360;SDS011;44164;44.954;10.068;2023-03-14T00:14:22;3.50;;;1.92;;
58360;SDS011;44164;44.954;10.068;2023-03-14T00:16:49;5.72;;;2.30;;
58360;SDS011;44164;44.954;10.068;2023-03-14T00:19:15;4.45;;;2.08;;
58360;SDS011;44164;44.954;10.068;2023-03-14T00:21:41;3.33;;;1.63;;
58360;SDS011;44164;44.954;10.068;2023-03-14T00:24:07;3.22;;;1.88;;
58360;SDS011;44164;44.954;10.068;2023-03-14T00:26:34;3.72;;;2.00;;
58360;SDS011;44164;44.954;10.068;2023-03-14T00:29:00;3.85;;;1.92;;
58360;SDS011;44164;44.954;10.068;2023-03-14T00:31:26;3.83;;;1.90;;
58360;SDS011;44164;44.954;10.068;2023-03-14T00:33:52;3.30;;;2.00;;
58360;SDS011;44164;44.954;10.068;2023-03-14T00:36:19;3.45;;;1.55;;
58360;SDS011;44164;44.954;10.068;2023-03-14T00:38:46;4.03;;;2.10;;
58360;SDS011;44164;44.954;10.068;2023-03-14T00:41:16;2.85;;;1.52;;
58360;SDS011;44164;44.954;10.068;2023-03-14T00:43:43;4.40;;;1.80;;
58360;SDS011;44164;44.954;10.068;2023-03-14T00:46:10;3.38;;;1.92;;
58360;SDS011;44164;44.954;10.068;2023-03-14T00:48:37;5.90;;;1.73;;
58360;SDS011;44164;44.954;10.068;2023-03-14T00:51:04;3.60;;;1.70;;
58360;SDS011;44164;44.954;10.068;2023-03-14T00:53:31;3.70;;;2.22;;
58360;SDS011;44164;44.954;10.068;2023-03-14T00:56:05;4.22;;;2.40;;
58360;SDS011;44164;44.954;10.068;2023-03-14T00:58:33;2.83;;;1.58;;
58360;SDS011;44164;44.954;10.068;2023-03-14T01:00:59;3.58;;;1.83;;
58360;SDS011;44164;44.954;10.068;2023-03-14T01:03:25;3.33;;;1.50;;
58360;SDS011;44164;44.954;10.068;2023-03-14T01:05:51;5.28;;;1.80;;
58360;SDS011;44164;44.954;10.068;2023-03-14T01:08:17;2.10;;;1.60;;
58360;SDS011;44164;44.954;10.068;2023-03-14T01:10:43;3.72;;;1.60;;
58360;SDS011;44164;44.954;10.068;2023-03-14T01:13:09;3.15;;;1.92;;
58360;SDS011;44164;44.954;10.068;2023-03-14T01:15:36;3.33;;;1.80;;
58360;SDS011;44164;44.954;10.068;2023-03-14T01:18:03;2.45;;;1.50;;
58360;SDS011;44164;44.954;10.068;2023-03-14T01:20:29;2.85;;;1.30;;
58360;SDS011;44164;44.954;10.068;2023-03-14T01:22:56;2.63;;;1.50;;
58360;SDS011;44164;44.954;10.068;2023-03-14T01:25:22;3.25;;;1.50;;
58360;SDS011;44164;44.954;10.068;2023-03-14T01:27:48;3.05;;;1.70;;
58360;SDS011;44164;44.954;10.068;2023-03-14T01:30:14;3.00;;;1.95;;
58360;SDS011;44164;44.954;10.068;2023-03-14T01:32:40;3.30;;;1.67;;
58360;SDS011;44164;44.954;10.068;2023-03-14T01:35:07;2.90;;;1.50;;
58360;SDS011;44164;44.954;10.068;2023-03-14T01:37:34;2.90;;;1.60;;
58360;SDS011;44164;44.954;10.068;2023-03-14T01:40:01;3.00;;;1.60;;
58360;SDS011;44164;44.954;10.068;2023-03-14T01:42:27;3.08;;;1.58;;
58360;SDS011;44164;44.954;10.068;2023-03-14T01:44:54;4.35;;;1.65;;
58360;SDS011;44164;44.954;10.068;2023-03-14T01:47:22;3.33;;;1.70;;
58360;SDS011;44164;44.954;10.068;2023-03-14T01:49:51;3.55;;;1.85;;
58360;SDS011;44164;44.954;10.068;2023-03-14T01:52:23;3.00;;;1.40;;
58360;SDS011;44164;44.954;10.068;2023-03-14T01:54:55;4.13;;;1.70;;
58360;SDS011;44164;44.954;10.068;2023-03-14T01:57:46;2.53;;;1.42;;
58360;SDS011;44164;44.954;10.068;2023-03-14T02:00:17;2.28;;;1.58;;
58360;SDS011;44164;44.954;10.068;2023-03-14T02:02:49;2.67;;;1.65;;
58360;SDS011;44164;44.954;10.068;2023-03-14T02:05:20;3.10;;;1.40;;
58360;SDS011;44164;44.954;10.068;2023-03-14T02:07:56;2.65;;;1.50;;
58360;SDS011;44164;44.954;10.068;2023-03-14T02:10:30;4.03;;;1.52;;
58360;SDS011;44164;44.954;10.068;2023-03-14T02:13:01;2.20;;;1.50;;
58360;SDS011;44164;44.954;10.068;2023-03-14T02:15:49;3.63;;;1.70;;
58360;SDS011;44164;44.954;10.068;2023-03-14T02:18:34;3.20;;;1.67;;
58360;SDS011;44164;44.954;10.068;2023-03-14T02:21:38;2.55;;;1.35;;
58360;SDS011;44164;44.954;10.068;2023-03-14T02:24:27;2.50;;;1.60;;
58360;SDS011;44164;44.954;10.068;2023-03-14T02:27:18;3.00;;;1.60;;
58360;SDS011;44164;44.954;10.068;2023-03-14T02:32:17;3.15;;;2.10;;
58360;SDS011;44164;44.954;10.068;2023-03-14T02:37:13;5.43;;;1.95;;
58360;SDS011;44164;44.954;10.068;2023-03-14T02:39:43;2.33;;;1.40;;
58360;SDS011;44164;44.954;10.068;2023-03-14T02:42:11;4.45;;;1.90;;
58360;SDS011;44164;44.954;10.068;2023-03-14T02:44:51;3.10;;;1.55;;
58360;SDS011;44164;44.954;10.068;2023-03-14T02:47:23;2.28;;;1.30;;
58360;SDS011;44164;44.954;10.068;2023-03-14T02:49:54;3.25;;;1.48;;
58360;SDS011;44164;44.954;10.068;2023-03-14T02:52:32;2.50;;;1.42;;
58360;SDS011;44164;44.954;10.068;2023-03-14T02:54:58;2.38;;;1.23;;
58360;SDS011;44164;44.954;10.068;2023-03-14T02:57:25;2.83;;;1.40;;
58360;SDS011;44164;44.954;10.068;2023-03-14T02:59:51;3.63;;;1.35;;
58360;SDS011;44164;44.954;10.068;2023-03-14T03:02:20;3.40;;;1.70;;
58360;SDS011;44164;44.954;10.068;2023-03-14T03:04:46;2.72;;;1.50;;
58360;SDS011;44164;44.954;10.068;2023-03-14T03:07:12;3.25;;;1.60;;
58360;SDS011;44164;44.954;10.068;2023-03-14T03:09:38;3.13;;;1.52;;
58360;SDS011;44164;44.954;10.068;2023-03-14T03:12:05;3.10;;;1.60;;
58360;SDS011;44164;44.954;10.068;2023-03-14T03:14:32;4.43;;;1.80;;
58360;SDS011;44164;44.954;10.068;2023-03-14T03:17:02;3.63;;;1.40;;
58360;SDS011;44164;44.954;10.068;2023-03-14T03:19:28;3.30;;;1.90;;
58360;SDS011;44164;44.954;10.068;2023-03-14T03:21:54;2.60;;;1.40;;
58360;SDS011;44164;44.954;10.068;2023-03-14T03:24:20;3.42;;;1.48;;
58360;SDS011;44164;44.954;10.068;2023-03-14T03:26:46;2.83;;;1.40;;
58360;SDS011;44164;44.954;10.068;2023-03-14T03:29:12;2.05;;;1.50;;
58360;SDS011;44164;44.954;10.068;2023-03-14T03:31:39;2.70;;;1.60;;
58360;SDS011;44164;44.954;10.068;2023-03-14T03:34:05;2.30;;;1.20;;
58360;SDS011;44164;44.954;10.068;2023-03-14T03:36:31;3.20;;;1.65;;
58360;SDS011;44164;44.954;10.068;2023-03-14T03:38:59;2.70;;;1.27;;
58360;SDS011;44164;44.954;10.068;2023-03-14T03:41:25;2.53;;;1.38;;
58360;SDS011;44164;44.954;10.068;2023-03-14T03:43:52;3.35;;;2.03;;
58360;SDS011;44164;44.954;10.068;2023-03-14T03:46:20;3.45;;;1.52;;
58360;SDS011;44164;44.954;10.068;2023-03-14T03:48:46;3.80;;;1.73;;
58360;SDS011;44164;44.954;10.068;2023-03-14T03:51:13;3.05;;;1.63;;
58360;SDS011;44164;44.954;10.068;2023-03-14T03:53:40;3.45;;;1.67;;
58360;SDS011;44164;44.954;10.068;2023-03-14T03:56:11;2.90;;;1.77;;
58360;SDS011;44164;44.954;10.068;2023-03-14T03:58:38;2.97;;;1.77;;
58360;SDS011;44164;44.954;10.068;2023-03-14T04:01:05;2.58;;;1.67;;
58360;SDS011;44164;44.954;10.068;2023-03-14T04:03:35;2.78;;;1.80;;
58360;SDS011;44164;44.954;10.068;2023-03-14T04:06:06;3.38;;;1.80;;
58360;SDS011;44164;44.954;10.068;2023-03-14T04:08:36;3.08;;;1.85;;
58360;SDS011;44164;44.954;10.068;2023-03-14T04:11:03;3.40;;;1.60;;
58360;SDS011;44164;44.954;10.068;2023-03-14T04:13:51;3.67;;;1.90;;
58360;SDS011;44164;44.954;10.068;2023-03-14T04:16:20;2.67;;;1.73;;
58360;SDS011;44164;44.954;10.068;2023-03-14T04:18:48;2.65;;;1.45;;
58360;SDS011;44164;44.954;10.068;2023-03-14T04:21:15;2.95;;;1.73;;
58360;SDS011;44164;44.954;10.068;2023-03-14T04:23:48;3.63;;;1.70;;
58360;SDS011;44164;44.954;10.068;2023-03-14T04:26:15;3.13;;;1.98;;
58360;SDS011;44164;44.954;10.068;2023-03-14T04:28:41;2.92;;;1.30;;
58360;SDS011;44164;44.954;10.068;2023-03-14T04:33:36;2.60;;;1.40;;
58360;SDS011;44164;44.954;10.068;2023-03-14T04:36:03;2.90;;;1.60;;
58360;SDS011;44164;44.954;10.068;2023-03-14T04:38:31;2.40;;;1.40;;
58360;SDS011;44164;44.954;10.068;2023-03-14T04:40:58;2.58;;;1.48;;
58360;SDS011;44164;44.954;10.068;2023-03-14T04:43:30;4.05;;;2.05;;
58360;SDS011;44164;44.954;10.068;2023-03-14T04:46:02;3.35;;;1.40;;
58360;SDS011;44164;44.954;10.068;2023-03-14T04:48:29;2.80;;;1.77;;
58360;SDS011;44164;44.954;10.068;2023-03-14T04:50:56;2.17;;;1.60;;
58360;SDS011;44164;44.954;10.068;2023-03-14T04:53:22;3.28;;;1.70;;
58360;SDS011;44164;44.954;10.068;2023-03-14T04:55:52;4.20;;;2.15;;
58360;SDS011;44164;44.954;10.068;2023-03-14T04:58:22;3.67;;;1.60;;
58360;SDS011;44164;44.954;10.068;2023-03-14T05:03:34;2.65;;;1.75;;
58360;SDS011;44164;44.954;10.068;2023-03-14T05:06:26;2.70;;;1.75;;
58360;SDS011;44164;44.954;10.068;2023-03-14T05:09:07;2.97;;;1.90;;
58360;SDS011;44164;44.954;10.068;2023-03-14T05:12:12;4.60;;;2.20;;
58360;SDS011;44164;44.954;10.068;2023-03-14T05:15:01;2.38;;;1.63;;
58360;SDS011;44164;44.954;10.068;2023-03-14T05:17:46;2.78;;;1.80;;
58360;SDS011;44164;44.954;10.068;2023-03-14T05:20:49;2.75;;;1.92;;
58360;SDS011;44164;44.954;10.068;2023-03-14T05:23:42;3.08;;;1.80;;
58360;SDS011;44164;44.954;10.068;2023-03-14T05:26:27;3.00;;;1.70;;
58360;SDS011;44164;44.954;10.068;2023-03-14T05:29:14;2.05;;;1.45;;
58360;SDS011;44164;44.954;10.068;2023-03-14T05:31:51;4.03;;;1.95;;
58360;SDS011;44164;44.954;10.068;2023-03-14T05:34:40;2.28;;;1.60;;
58360;SDS011;44164;44.954;10.068;2023-03-14T05:37:22;3.70;;;1.95;;
58360;SDS011;44164;44.954;10.068;2023-03-14T05:40:09;3.00;;;1.73;;
58360;SDS011;44164;44.954;10.068;2023-03-14T05:43:05;3.63;;;1.90;;
58360;SDS011;44164;44.954;10.068;2023-03-14T05:45:52;3.47;;;1.77;;
58360;SDS011;44164;44.954;10.068;2023-03-14T05:48:37;5.03;;;2.28;;
58360;SDS011;44164;44.954;10.068;2023-03-14T05:51:05;2.83;;;1.65;;
58360;SDS011;44164;44.954;10.068;2023-03-14T05:53:50;3.40;;;2.08;;
58360;SDS011;44164;44.954;10.068;2023-03-14T05:56:32;2.78;;;1.80;;
58360;SDS011;44164;44.954;10.068;2023-03-14T05:59:04;3.75;;;1.85;;
58360;SDS011;44164;44.954;10.068;2023-03-14T06:01:59;3.30;;;1.88;;
58360;SDS011;44164;44.954;10.068;2023-03-14T06:04:28;3.28;;;1.65;;
58360;SDS011;44164;44.954;10.068;2023-03-14T06:06:58;2.85;;;1.80;;
58360;SDS011;44164;44.954;10.068;2023-03-14T06:09:25;2.53;;;1.60;;
58360;SDS011;44164;44.954;10.068;2023-03-14T06:11:54;3.28;;;2.05;;
58360;SDS011;44164;44.954;10.068;2023-03-14T06:14:20;3.35;;;2.17;;
58360;SDS011;44164;44.954;10.068;2023-03-14T06:16:48;4.43;;;2.10;;
58360;SDS011;44164;44.954;10.068;2023-03-14T06:21:42;4.43;;;2.00;;
58360;SDS011;44164;44.954;10.068;2023-03-14T06:24:09;3.40;;;1.90;;
58360;SDS011;44164;44.954;10.068;2023-03-14T06:26:40;2.40;;;1.58;;
58360;SDS011;44164;44.954;10.068;2023-03-14T06:29:06;4.85;;;1.90;;
58360;SDS011;44164;44.954;10.068;2023-03-14T06:31:34;3.00;;;1.75;;
58360;SDS011;44164;44.954;10.068;2023-03-14T06:34:03;3.10;;;1.65;;
58360;SDS011;44164;44.954;10.068;2023-03-14T06:36:31;5.85;;;1.70;;
58360;SDS011;44164;44.954;10.068;2023-03-14T06:38:58;3.03;;;1.90;;
58360;SDS011;44164;44.954;10.068;2023-03-14T06:41:26;5.45;;;2.10;;
58360;SDS011;44164;44.954;10.068;2023-03-14T06:43:52;3.55;;;1.95;;
58360;SDS011;44164;44.954;10.068;2023-03-14T06:46:20;4.63;;;1.95;;
58360;SDS011;44164;44.954;10.068;2023-03-14T06:48:47;4.15;;;2.17;;
58360;SDS011;44164;44.954;10.068;2023-03-14T06:51:13;3.70;;;2.50;;
58360;SDS011;44164;44.954;10.068;2023-03-14T06:53:39;7.00;;;2.00;;
58360;SDS011;44164;44.954;10.068;2023-03-14T06:56:07;3.80;;;2.45;;
58360;SDS011;44164;44.954;10.068;2023-03-14T06:58:34;12.80;;;9.30;;
58360;SDS011;44164;44.954;10.068;2023-03-14T07:01:02;11.88;;;10.25;;
58360;SDS011;44164;44.954;10.068;2023-03-14T07:03:35;8.98;;;7.88;;
58360;SDS011;44164;44.954;10.068;2023-03-14T07:06:03;7.03;;;5.78;;
58360;SDS011;44164;44.954;10.068;2023-03-14T07:08:32;6.03;;;4.80;;
58360;SDS011;44164;44.954;10.068;2023-03-14T07:11:00;6.30;;;4.50;;
58360;SDS011;44164;44.954;10.068;2023-03-14T07:13:26;6.20;;;4.43;;
58360;SDS011;44164;44.954;10.068;2023-03-14T07:16:11;5.90;;;4.35;;
58360;SDS011;44164;44.954;10.068;2023-03-14T07:18:37;5.15;;;4.20;;
58360;SDS011;44164;44.954;10.068;2023-03-14T07:21:05;7.25;;;4.25;;
58360;SDS011;44164;44.954;10.068;2023-03-14T07:23:32;6.22;;;4.20;;
58360;SDS011;44164;44.954;10.068;2023-03-14T07:25:59;5.18;;;3.65;;
58360;SDS011;44164;44.954;10.068;2023-03-14T07:28:26;5.47;;;3.73;;
58360;SDS011;44164;44.954;10.068;2023-03-14T07:31:01;5.82;;;3.92;;
58360;SDS011;44164;44.954;10.068;2023-03-14T07:33:31;9.70;;;3.40;;
58360;SDS011;44164;44.954;10.068;2023-03-14T07:35:57;5.25;;;3.83;;
58360;SDS011;44164;44.954;10.068;2023-03-14T07:38:26;6.35;;;3.30;;
58360;SDS011;44164;44.954;10.068;2023-03-14T07:41:24;4.05;;;2.95;;
58360;SDS011;44164;44.954;10.068;2023-03-14T07:44:17;6.00;;;3.05;;
58360;SDS011;44164;44.954;10.068;2023-03-14T07:46:43;5.50;;;2.85;;
58360;SDS011;44164;44.954;10.068;2023-03-14T07:49:09;6.15;;;3.10;;
58360;SDS011;44164;44.954;10.068;2023-03-14T07:51:35;4.95;;;2.70;;
58360;SDS011;44164;44.954;10.068;2023-03-14T07:54:01;7.80;;;3.00;;
58360;SDS011;44164;44.954;10.068;2023-03-14T07:56:27;5.20;;;2.70;;
58360;SDS011;44164;44.954;10.068;2023-03-14T07:58:53;4.97;;;2.53;;
58360;SDS011;44164;44.954;10.068;2023-03-14T08:01:19;4.30;;;2.70;;
58360;SDS011;44164;44.954;10.068;2023-03-14T08:03:45;3.97;;;2.47;;
58360;SDS011;44164;44.954;10.068;2023-03-14T08:06:12;6.05;;;2.63;;
58360;SDS011;44164;44.954;10.068;2023-03-14T08:08:38;8.30;;;3.40;;
58360;SDS011;44164;44.954;10.068;2023-03-14T08:11:05;4.43;;;2.38;;
58360;SDS011;44164;44.954;10.068;2023-03-14T08:13:34;3.50;;;2.53;;
58360;SDS011;44164;44.954;10.068;2023-03-14T08:16:01;3.70;;;2.67;;
58360;SDS011;44164;44.954;10.068;2023-03-14T08:18:28;5.00;;;2.83;;
58360;SDS011;44164;44.954;10.068;2023-03-14T08:20:54;3.83;;;2.47;;
58360;SDS011;44164;44.954;10.068;2023-03-14T08:23:20;4.13;;;2.70;;
58360;SDS011;44164;44.954;10.068;2023-03-14T08:25:47;3.80;;;2.25;;
58360;SDS011;44164;44.954;10.068;2023-03-14T08:28:14;4.47;;;2.20;;
58360;SDS011;44164;44.954;10.068;2023-03-14T08:30:40;3.45;;;2.40;;
58360;SDS011;44164;44.954;10.068;2023-03-14T08:33:07;3.83;;;2.75;;
58360;SDS011;44164;44.954;10.068;2023-03-14T08:35:33;3.58;;;2.58;;
58360;SDS011;44164;44.954;10.068;2023-03-14T08:37:59;6.30;;;2.53;;
58360;SDS011;44164;44.954;10.068;2023-03-14T08:40:25;4.63;;;2.70;;
58360;SDS011;44164;44.954;10.068;2023-03-14T08:42:52;3.42;;;2.45;;
58360;SDS011;44164;44.954;10.068;2023-03-14T08:45:18;3.00;;;2.08;;
58360;SDS011;44164;44.954;10.068;2023-03-14T08:47:44;3.17;;;2.33;;
58360;SDS011;44164;44.954;10.068;2023-03-14T08:50:11;4.72;;;2.17;;
58360;SDS011;44164;44.954;10.068;2023-03-14T08:52:38;4.50;;;2.85;;
58360;SDS011;44164;44.954;10.068;2023-03-14T08:55:06;3.85;;;2.38;;
58360;SDS011;44164;44.954;10.068;2023-03-14T08:57:33;3.90;;;2.38;;
58360;SDS011;44164;44.954;10.068;2023-03-14T08:59:59;4.47;;;2.65;;
58360;SDS011;44164;44.954;10.068;2023-03-14T09:02:26;4.47;;;2.53;;
58360;SDS011;44164;44.954;10.068;2023-03-14T09:04:52;4.50;;;2.58;;
58360;SDS011;44164;44.954;10.068;2023-03-14T09:07:19;3.78;;;2.30;;
58360;SDS011;44164;44.954;10.068;2023-03-14T09:09:45;5.28;;;2.20;;
58360;SDS011;44164;44.954;10.068;2023-03-14T09:12:11;3.78;;;2.40;;
58360;SDS011;44164;44.954;10.068;2023-03-14T09:14:37;3.08;;;2.20;;
58360;SDS011;44164;44.954;10.068;2023-03-14T09:17:04;4.20;;;2.55;;
58360;SDS011;44164;44.954;10.068;2023-03-14T09:19:30;3.55;;;2.38;;
58360;SDS011;44164;44.954;10.068;2023-03-14T09:21:56;6.13;;;2.47;;
58360;SDS011;44164;44.954;10.068;2023-03-14T09:24:22;4.55;;;2.50;;
58360;SDS011;44164;44.954;10.068;2023-03-14T09:26:48;4.85;;;2.40;;
58360;SDS011;44164;44.954;10.068;2023-03-14T09:29:14;4.05;;;2.45;;
58360;SDS011;44164;44.954;10.068;2023-03-14T09:31:40;2.90;;;2.20;;
58360;SDS011;44164;44.954;10.068;2023-03-14T09:34:06;3.63;;;2.20;;
58360;SDS011;44164;44.954;10.068;2023-03-14T09:36:32;5.32;;;2.45;;
58360;SDS011;44164;44.954;10.068;2023-03-14T09:38:58;4.45;;;2.33;;
58360;SDS011;44164;44.954;10.068;2023-03-14T09:41:26;5.03;;;2.70;;
58360;SDS011;44164;44.954;10.068;2023-03-14T09:44:00;4.25;;;2.42;;
58360;SDS011;44164;44.954;10.068;2023-03-14T09:46:30;3.67;;;2.50;;
58360;SDS011;44164;44.954;10.068;2023-03-14T09:48:57;3.30;;;2.10;;
58360;SDS011;44164;44.954;10.068;2023-03-14T09:51:23;6.63;;;2.78;;
58360;SDS011;44164;44.954;10.068;2023-03-14T09:53:50;5.15;;;2.63;;
58360;SDS011;44164;44.954;10.068;2023-03-14T09:56:24;3.83;;;2.13;;
58360;SDS011;44164;44.954;10.068;2023-03-14T09:58:52;3.78;;;2.30;;
58360;SDS011;44164;44.954;10.068;2023-03-14T10:01:22;4.32;;;2.65;;
58360;SDS011;44164;44.954;10.068;2023-03-14T10:03:52;3.15;;;1.88;;
58360;SDS011;44164;44.954;10.068;2023-03-14T10:06:20;6.15;;;2.47;;
58360;SDS011;44164;44.954;10.068;2023-03-14T10:08:49;4.28;;;2.17;;
58360;SDS011;44164;44.954;10.068;2023-03-14T10:11:16;3.55;;;2.50;;
58360;SDS011;44164;44.954;10.068;2023-03-14T10:13:47;3.67;;;2.22;;
58360;SDS011;44164;44.954;10.068;2023-03-14T10:16:14;4.03;;;2.28;;
58360;SDS011;44164;44.954;10.068;2023-03-14T10:18:44;3.78;;;2.13;;
58360;SDS011;44164;44.954;10.068;2023-03-14T10:23:52;6.07;;;2.42;;
58360;SDS011;44164;44.954;10.068;2023-03-14T10:26:27;4.82;;;2.05;;
58360;SDS011;44164;44.954;10.068;2023-03-14T10:29:01;2.88;;;2.00;;
58360;SDS011;44164;44.954;10.068;2023-03-14T10:31:32;5.43;;;2.15;;
58360;SDS011;44164;44.954;10.068;2023-03-14T10:34:34;4.07;;;2.05;;
58360;SDS011;44164;44.954;10.068;2023-03-14T10:37:08;3.80;;;2.13;;
58360;SDS011;44164;44.954;10.068;2023-03-14T10:39:48;4.78;;;2.33;;
58360;SDS011;44164;44.954;10.068;2023-03-14T10:42:19;3.33;;;2.28;;
58360;SDS011;44164;44.954;10.068;2023-03-14T10:44:53;4.57;;;2.17;;
58360;SDS011;44164;44.954;10.068;2023-03-14T10:47:22;3.63;;;2.25;;
58360;SDS011;44164;44.954;10.068;2023-03-14T10:49:50;3.75;;;2.00;;
58360;SDS011;44164;44.954;10.068;2023-03-14T10:55:03;4.25;;;2.40;;
58360;SDS011;44164;44.954;10.068;2023-03-14T10:57:39;3.55;;;1.83;;
58360;SDS011;44164;44.954;10.068;2023-03-14T11:00:09;3.88;;;2.28;;
58360;SDS011;44164;44.954;10.068;2023-03-14T11:02:48;4.22;;;2.45;;
58360;SDS011;44164;44.954;10.068;2023-03-14T11:05:48;3.13;;;1.95;;
58360;SDS011;44164;44.954;10.068;2023-03-14T11:08:22;3.38;;;1.77;;
58360;SDS011;44164;44.954;10.068;2023-03-14T11:11:14;3.78;;;2.17;;
58360;SDS011;44164;44.954;10.068;2023-03-14T11:13:53;3.78;;;2.20;;
58360;SDS011;44164;44.954;10.068;2023-03-14T11:27:48;3.65;;;2.22;;
58360;SDS011;44164;44.954;10.068;2023-03-14T11:33:35;3.65;;;2.25;;
58360;SDS011;44164;44.954;10.068;2023-03-14T11:36:07;3.47;;;1.92;;
58360;SDS011;44164;44.954;10.068;2023-03-14T11:38:38;4.95;;;2.50;;
58360;SDS011;44164;44.954;10.068;2023-03-14T11:41:10;6.72;;;2.13;;
58360;SDS011;44164;44.954;10.068;2023-03-14T11:43:40;5.50;;;2.65;;
58360;SDS011;44164;44.954;10.068;2023-03-14T11:51:50;3.85;;;2.22;;
58360;SDS011;44164;44.954;10.068;2023-03-14T11:54:20;4.20;;;2.25;;
58360;SDS011;44164;44.954;10.068;2023-03-14T12:02:20;3.88;;;2.20;;
58360;SDS011;44164;44.954;10.068;2023-03-14T12:08:11;3.63;;;2.28;;
58360;SDS011;44164;44.954;10.068;2023-03-14T12:10:49;5.25;;;2.58;;
58360;SDS011;44164;44.954;10.068;2023-03-14T12:13:28;4.78;;;2.78;;
58360;SDS011;44164;44.954;10.068;2023-03-14T12:18:28;6.25;;;3.05;;
58360;SDS011;44164;44.954;10.068;2023-03-14T12:21:00;3.58;;;2.63;;
58360;SDS011;44164;44.954;10.068;2023-03-14T12:23:27;7.20;;;2.60;;
58360;SDS011;44164;44.954;10.068;2023-03-14T12:26:13;5.60;;;2.67;;
58360;SDS011;44164;44.954;10.068;2023-03-14T12:39:31;4.03;;;2.25;;
58360;SDS011;44164;44.954;10.068;2023-03-14T12:46:59;4.10;;;2.65;;
58360;SDS011;44164;44.954;10.068;2023-03-14T12:49:31;6.18;;;2.03;;
58360;SDS011;44164;44.954;10.068;2023-03-14T12:52:01;5.10;;;2.47;;
58360;SDS011;44164;44.954;10.068;2023-03-14T12:57:23;5.97;;;2.55;;
58360;SDS011;44164;44.954;10.068;2023-03-14T12:59:55;12.93;;;2.53;;
58360;SDS011;44164;44.954;10.068;2023-03-14T13:02:29;4.20;;;2.20;;
58360;SDS011;44164;44.954;10.068;2023-03-14T13:05:06;5.65;;;2.08;;
58360;SDS011;44164;44.954;10.068;2023-03-14T13:10:28;5.32;;;2.83;;
58360;SDS011;44164;44.954;10.068;2023-03-14T13:13:24;5.68;;;2.15;;
58360;SDS011;44164;44.954;10.068;2023-03-14T13:15:56;10.80;;;2.58;;
58360;SDS011;44164;44.954;10.068;2023-03-14T13:18:29;6.20;;;2.58;;
58360;SDS011;44164;44.954;10.068;2023-03-14T13:23:32;9.25;;;3.08;;
58360;SDS011;44164;44.954;10.068;2023-03-14T13:26:00;10.63;;;3.40;;
58360;SDS011;44164;44.954;10.068;2023-03-14T13:28:27;11.02;;;3.42;;
58360;SDS011;44164;44.954;10.068;2023-03-14T13:30:55;5.93;;;2.73;;
58360;SDS011;44164;44.954;10.068;2023-03-14T13:33:25;10.25;;;3.58;;
58360;SDS011;44164;44.954;10.068;2023-03-14T13:35:59;8.65;;;3.88;;
58360;SDS011;44164;44.954;10.068;2023-03-14T13:38:30;7.03;;;2.90;;
58360;SDS011;44164;44.954;10.068;2023-03-14T13:40:59;7.85;;;2.90;;
58360;SDS011;44164;44.954;10.068;2023-03-14T13:43:30;5.30;;;2.90;;
58360;SDS011;44164;44.954;10.068;2023-03-14T13:46:07;3.53;;;2.45;;
58360;SDS011;44164;44.954;10.068;2023-03-14T13:48:34;5.05;;;2.88;;
58360;SDS011;44164;44.954;10.068;2023-03-14T13:51:10;4.55;;;2.55;;
58360;SDS011;44164;44.954;10.068;2023-03-14T13:56:11;7.13;;;3.30;;
58360;SDS011;44164;44.954;10.068;2023-03-14T13:58:39;8.93;;;3.60;;
58360;SDS011;44164;44.954;10.068;2023-03-14T14:03:48;4.45;;;2.60;;
58360;SDS011;44164;44.954;10.068;2023-03-14T14:06:37;8.15;;;3.17;;
58360;SDS011;44164;44.954;10.068;2023-03-14T14:09:12;6.28;;;3.20;;
58360;SDS011;44164;44.954;10.068;2023-03-14T14:11:48;6.85;;;2.90;;
58360;SDS011;44164;44.954;10.068;2023-03-14T14:14:33;6.68;;;3.03;;
58360;SDS011;44164;44.954;10.068;2023-03-14T14:17:03;6.72;;;2.72;;
58360;SDS011;44164;44.954;10.068;2023-03-14T14:19:31;7.20;;;2.88;;
58360;SDS011;44164;44.954;10.068;2023-03-14T14:21:58;6.78;;;3.25;;
58360;SDS011;44164;44.954;10.068;2023-03-14T14:24:28;6.78;;;3.15;;
58360;SDS011;44164;44.954;10.068;2023-03-14T14:26:59;7.65;;;2.88;;
58360;SDS011;44164;44.954;10.068;2023-03-14T14:29:38;10.18;;;3.42;;
58360;SDS011;44164;44.954;10.068;2023-03-14T14:34:41;7.93;;;3.35;;
58360;SDS011;44164;44.954;10.068;2023-03-14T14:37:18;9.25;;;3.00;;
58360;SDS011;44164;44.954;10.068;2023-03-14T14:39:48;7.05;;;3.10;;
58360;SDS011;44164;44.954;10.068;2023-03-14T14:42:16;10.75;;;2.88;;
58360;SDS011;44164;44.954;10.068;2023-03-14T14:44:47;5.78;;;2.78;;
58360;SDS011;44164;44.954;10.068;2023-03-14T14:47:21;6.20;;;3.10;;
58360;SDS011;44164;44.954;10.068;2023-03-14T14:49:48;9.05;;;3.40;;
58360;SDS011;44164;44.954;10.068;2023-03-14T14:52:16;7.90;;;2.67;;
58360;SDS011;44164;44.954;10.068;2023-03-14T14:54:44;10.90;;;3.05;;
58360;SDS011;44164;44.954;10.068;2023-03-14T14:57:33;5.53;;;2.80;;
58360;SDS011;44164;44.954;10.068;2023-03-14T15:00:06;7.03;;;2.75;;
58360;SDS011;44164;44.954;10.068;2023-03-14T15:05:15;9.07;;;3.40;;
58360;SDS011;44164;44.954;10.068;2023-03-14T15:07:45;7.95;;;3.15;;
58360;SDS011;44164;44.954;10.068;2023-03-14T15:10:14;6.68;;;2.88;;
58360;SDS011;44164;44.954;10.068;2023-03-14T15:12:43;5.75;;;2.58;;
58360;SDS011;44164;44.954;10.068;2023-03-14T15:15:09;7.13;;;2.70;;
58360;SDS011;44164;44.954;10.068;2023-03-14T15:17:37;4.22;;;2.35;;
58360;SDS011;44164;44.954;10.068;2023-03-14T15:20:04;5.47;;;2.90;;
58360;SDS011;44164;44.954;10.068;2023-03-14T15:22:31;5.93;;;2.70;;
58360;SDS011;44164;44.954;10.068;2023-03-14T15:24:57;6.30;;;3.17;;
58360;SDS011;44164;44.954;10.068;2023-03-14T15:27:23;7.97;;;2.97;;
58360;SDS011;44164;44.954;10.068;2023-03-14T15:29:50;8.55;;;3.05;;
58360;SDS011;44164;44.954;10.068;2023-03-14T15:32:16;6.05;;;2.88;;
58360;SDS011;44164;44.954;10.068;2023-03-14T15:34:43;9.80;;;3.20;;
58360;SDS011;44164;44.954;10.068;2023-03-14T15:37:13;5.57;;;3.08;;
58360;SDS011;44164;44.954;10.068;2023-03-14T15:39:41;6.00;;;2.88;;
58360;SDS011;44164;44.954;10.068;2023-03-14T15:42:08;7.37;;;2.97;;
58360;SDS011;44164;44.954;10.068;2023-03-14T15:44:35;9.75;;;2.90;;
58360;SDS011;44164;44.954;10.068;2023-03-14T15:47:01;7.68;;;3.28;;
58360;SDS011;44164;44.954;10.068;2023-03-14T15:49:27;10.95;;;3.05;;
58360;SDS011;44164;44.954;10.068;2023-03-14T15:51:54;9.45;;;3.28;;
58360;SDS011;44164;44.954;10.068;2023-03-14T15:54:20;6.30;;;3.40;;
58360;SDS011;44164;44.954;10.068;2023-03-14T15:56:46;4.68;;;3.00;;
58360;SDS011;44164;44.954;10.068;2023-03-14T15:59:12;8.82;;;3.67;;
58360;SDS011;44164;44.954;10.068;2023-03-14T16:01:38;5.35;;;3.30;;
58360;SDS011;44164;44.954;10.068;2023-03-14T16:04:04;7.25;;;3.58;;
58360;SDS011;44164;44.954;10.068;2023-03-14T16:06:30;6.90;;;3.50;;
58360;SDS011;44164;44.954;10.068;2023-03-14T16:08:57;4.53;;;3.33;;
58360;SDS011;44164;44.954;10.068;2023-03-14T16:11:23;5.32;;;3.35;;
58360;SDS011;44164;44.954;10.068;2023-03-14T16:13:49;9.75;;;3.53;;
58360;SDS011;44164;44.954;10.068;2023-03-14T16:16:15;5.55;;;3.40;;
58360;SDS011;44164;44.954;10.068;2023-03-14T16:18:42;5.82;;;3.35;;